ADDS METAR Data INFO
IDs: Format: Raw Decoded Include TAF

Data at: 0222 UTC 14 Dec 2017

KEQY 140153Z AUTO 22016G22KT 10SM CLR 04/M07 A2976 RMK AO2 SLP099 T00441072
KEQY 140053Z AUTO 21010KT 10SM CLR 04/M08 A2978 RMK AO2 SLP107 T00441078
KEQY 132353Z AUTO 21007KT 10SM CLR 04/M08 A2980 RMK AO2 SLP114 T00441083 10078 20044 57015
KEQY 132253Z AUTO 21008KT 10SM CLR 06/M08 A2982 RMK AO2 SLP119 T00561083
KEQY 132153Z AUTO 21009KT 10SM CLR 07/M08 A2983 RMK AO2 SLP120 T00671083
KEQY 132053Z AUTO 23011KT 10SM CLR 07/M11 A2985 RMK AO2 SLP127 T00721106 57023
KEQY 131953Z AUTO 23009KT 10SM CLR 07/M12 A2987 RMK AO2 SLP135 T00721122
KEQY 131853Z AUTO 24010KT 10SM CLR 07/M12 A2989 RMK AO2 SLP141 T00721122
KEQY 131753Z AUTO 21006KT 10SM CLR 06/M12 A2992 RMK AO2 SLP150 T00611122 10067 21056 58028
KEQY 131653Z AUTO 22008KT 190V260 10SM CLR 06/M13 A2996 RMK AO2 SLP163 T00561133
KEQY 131553Z AUTO 22007KT 10SM CLR 04/M13 A2999 RMK AO2 SLP176 T00391133
KEQY 131453Z AUTO 23004KT 10SM CLR 02/M12 A3000 RMK AO2 SLP179 T00171117 51014
KEQY 131353Z AUTO 00000KT 10SM CLR M01/M12 A2999 RMK AO2 SLP177 T10111117
KEQY 131253Z AUTO 25004KT 10SM CLR M03/M12 A2997 RMK AO2 SLP172 T10331122
KEQY 131153Z AUTO 22005KT 10SM CLR M06/M12 A2996 RMK AO2 SLP167 T10561122 10000 21056 53016
KEQY 131053Z AUTO 28003KT 10SM CLR M03/M14 A2994 RMK AO2 SLP157 T10331139
KEQY 130953Z AUTO 26003KT 10SM CLR M02/M16 A2991 RMK AO2 SLP148 T10171161
KEQY 130853Z AUTO 24005KT 10SM CLR M02/M14 A2991 RMK AO2 SLP145 T10221144 51021
KEQY 130753Z AUTO 00000KT 10SM CLR M02/M13 A2989 RMK AO2 SLP140 T10221128
KEQY 130653Z AUTO 31006KT 10SM CLR M01/M14 A2987 RMK AO2 SLP133 T10061144
KEQY 130553Z AUTO VRB04KT 10SM CLR 00/M14 A2985 RMK AO2 SLP123 T00001139 10061 20000 51004
KEQY 130453Z AUTO 31008KT 10SM CLR 01/M12 A2984 RMK AO2 SLP122 T00111117 401330011
KEQY 130353Z AUTO 32003KT 10SM CLR 02/M10 A2984 RMK AO2 SLP121 T00171100
KEQY 130253Z AUTO 34005KT 10SM CLR 02/M09 A2983 RMK AO2 SLP120 T00221094 51026
KEQY 130153Z AUTO 32009G18KT 10SM CLR 03/M08 A2982 RMK AO2 PK WND 33026/0056 SLP115 T00281083
KEQY 130053Z AUTO 33011G17KT 10SM CLR 04/M08 A2979 RMK AO2 PK WND 32029/0000 SLP103 T00441078
KEQY 122353Z AUTO 33007G20KT 10SM CLR 06/M07 A2976 RMK AO2 PK WND 31029/2330 SLP093 T00611072 10133 20061 53029
KEQY 122253Z AUTO 31014G24KT 10SM CLR 08/M05 A2971 RMK AO2 SLP078 T00831050
KEQY 122153Z AUTO 28012G22KT 10SM CLR 10/M04 A2968 RMK AO2 PK WND 26026/2100 SLP066 T01001044
KEQY 122053Z AUTO 25012KT 10SM BKN060 12/M02 A2967 RMK AO2 SLP061 T01171017 55001
KEQY 121953Z AUTO 28010G17KT 10SM CLR 12/M02 A2967 RMK AO2 SLP058 T01171022
KEQY 121853Z AUTO 29011G18KT 10SM BKN055 12/M02 A2968 RMK AO2 SLP061 T01171017
KEQY 121753Z AUTO 28010G20KT 10SM CLR 12/M01 A2967 RMK AO2 SLP061 T01221011 10122 20039 58015
KEQY 121653Z AUTO 30009KT 10SM CLR 11/01 A2969 RMK AO2 SLP068 T01110011
KEQY 121553Z AUTO 27006KT 10SM CLR 10/03 A2972 RMK AO2 SLP075 T01000028
KEQY 121453Z AUTO 28008KT 10SM CLR 08/03 A2972 RMK AO2 SLP078 T00780028 56008